sensor_id;sensor_type;location;lat;lon;timestamp;pressure;altitude;pressure_sealevel;temperature;humidity
6528;BME280;64597;42.664;23.256;2023-02-23T00:00:32;94424.63;;;8.28;52.89
6528;BME280;64597;42.664;23.256;2023-02-23T00:02:58;94418.84;;;8.20;52.57
6528;BME280;64597;42.664;23.256;2023-02-23T00:05:30;94427.25;;;8.10;52.64
6528;BME280;64597;42.664;23.256;2023-02-23T00:07:56;94420.13;;;7.99;52.69
6528;BME280;64597;42.664;23.256;2023-02-23T00:10:22;94424.53;;;8.05;52.69
6528;BME280;64597;42.664;23.256;2023-02-23T00:12:57;94428.06;;;8.11;52.48
6528;BME280;64597;42.664;23.256;2023-02-23T00:15:27;94427.72;;;8.07;52.86
6528;BME280;64597;42.664;23.256;2023-02-23T00:17:54;94419.69;;;8.02;53.06
6528;BME280;64597;42.664;23.256;2023-02-23T00:20:20;94430.94;;;8.09;53.39
6528;BME280;64597;42.664;23.256;2023-02-23T00:22:56;94431.34;;;8.06;53.17
6528;BME280;64597;42.664;23.256;2023-02-23T00:25:23;94427.91;;;8.06;53.18
6528;BME280;64597;42.664;23.256;2023-02-23T00:27:50;94440.34;;;7.99;53.85
6528;BME280;64597;42.664;23.256;2023-02-23T00:30:17;94437.78;;;7.92;54.00
6528;BME280;64597;42.664;23.256;2023-02-23T00:32:43;94437.28;;;7.84;54.22
6528;BME280;64597;42.664;23.256;2023-02-23T00:35:09;94428.13;;;7.75;54.32
6528;BME280;64597;42.664;23.256;2023-02-23T00:37:45;94435.69;;;7.83;54.59
6528;BME280;64597;42.664;23.256;2023-02-23T00:40:14;94426.50;;;7.74;55.43
6528;BME280;64597;42.664;23.256;2023-02-23T00:42:44;94432.34;;;7.58;56.35
6528;BME280;64597;42.664;23.256;2023-02-23T00:45:12;94425.19;;;7.46;55.95
6528;BME280;64597;42.664;23.256;2023-02-23T00:47:39;94428.41;;;7.48;55.88
6528;BME280;64597;42.664;23.256;2023-02-23T00:50:11;94433.00;;;7.53;56.09
6528;BME280;64597;42.664;23.256;2023-02-23T00:52:38;94432.78;;;7.55;55.91
6528;BME280;64597;42.664;23.256;2023-02-23T00:55:08;94433.75;;;7.60;55.79
6528;BME280;64597;42.664;23.256;2023-02-23T00:57:34;94412.47;;;7.50;55.71
6528;BME280;64597;42.664;23.256;2023-02-23T00:59:59;94430.25;;;7.66;55.64
6528;BME280;64597;42.664;23.256;2023-02-23T01:02:26;94432.94;;;7.60;55.97
6528;BME280;64597;42.664;23.256;2023-02-23T01:04:55;94432.41;;;7.51;56.21
6528;BME280;64597;42.664;23.256;2023-02-23T01:07:20;94441.31;;;7.50;56.43
6528;BME280;64597;42.664;23.256;2023-02-23T01:09:50;94441.09;;;7.52;56.53
6528;BME280;64597;42.664;23.256;2023-02-23T01:12:15;94433.94;;;7.40;56.85
6528;BME280;64597;42.664;23.256;2023-02-23T01:14:41;94425.06;;;7.23;57.15
6528;BME280;64597;42.664;23.256;2023-02-23T01:17:06;94432.69;;;7.25;57.52
6528;BME280;64597;42.664;23.256;2023-02-23T01:19:32;94442.81;;;7.21;57.33
6528;BME280;64597;42.664;23.256;2023-02-23T01:21:59;94438.00;;;7.18;57.76
6528;BME280;64597;42.664;23.256;2023-02-23T01:24:27;94434.06;;;7.09;58.08
6528;BME280;64597;42.664;23.256;2023-02-23T01:26:53;94435.34;;;7.00;58.68
6528;BME280;64597;42.664;23.256;2023-02-23T01:29:18;94425.72;;;6.94;58.68
6528;BME280;64597;42.664;23.256;2023-02-23T01:31:47;94433.38;;;6.96;58.53
6528;BME280;64597;42.664;23.256;2023-02-23T01:34:13;94433.72;;;6.99;58.48
6528;BME280;64597;42.664;23.256;2023-02-23T01:36:41;94433.81;;;6.93;58.93
6528;BME280;64597;42.664;23.256;2023-02-23T01:39:13;94436.69;;;6.85;58.85
6528;BME280;64597;42.664;23.256;2023-02-23T01:41:38;94439.50;;;6.83;58.93
6528;BME280;64597;42.664;23.256;2023-02-23T01:46:41;94428.75;;;6.91;58.63
6528;BME280;64597;42.664;23.256;2023-02-23T01:49:15;94435.44;;;6.87;58.87
6528;BME280;64597;42.664;23.256;2023-02-23T01:51:45;94432.25;;;6.85;58.73
6528;BME280;64597;42.664;23.256;2023-02-23T01:54:15;94428.31;;;6.76;59.04
6528;BME280;64597;42.664;23.256;2023-02-23T01:56:48;94433.28;;;6.84;59.01
6528;BME280;64597;42.664;23.256;2023-02-23T01:59:25;94429.63;;;6.85;58.54
6528;BME280;64597;42.664;23.256;2023-02-23T02:01:53;94430.22;;;6.87;59.02
6528;BME280;64597;42.664;23.256;2023-02-23T02:04:20;94417.78;;;6.83;58.91
6528;BME280;64597;42.664;23.256;2023-02-23T02:06:48;94422.22;;;6.82;58.39
6528;BME280;64597;42.664;23.256;2023-02-23T02:09:18;94429.63;;;6.85;58.91
6528;BME280;64597;42.664;23.256;2023-02-23T02:11:45;94426.84;;;6.80;58.79
6528;BME280;64597;42.664;23.256;2023-02-23T02:14:22;94418.19;;;6.80;58.89
6528;BME280;64597;42.664;23.256;2023-02-23T02:42:59;94414.63;;;6.74;59.55
6528;BME280;64597;42.664;23.256;2023-02-23T02:53:22;94414.03;;;6.47;59.25
6528;BME280;64597;42.664;23.256;2023-02-23T02:55:50;94419.34;;;6.59;59.12
6528;BME280;64597;42.664;23.256;2023-02-23T02:58:20;94422.94;;;6.64;59.18
6528;BME280;64597;42.664;23.256;2023-02-23T03:00:50;94419.09;;;6.67;59.02
6528;BME280;64597;42.664;23.256;2023-02-23T03:03:42;94422.34;;;6.62;59.25
6528;BME280;64597;42.664;23.256;2023-02-23T03:12:10;94427.22;;;6.59;59.68
6528;BME280;64597;42.664;23.256;2023-02-23T03:21:26;94422.91;;;6.40;60.19
6528;BME280;64597;42.664;23.256;2023-02-23T03:27:19;94433.00;;;6.36;60.38
6528;BME280;64597;42.664;23.256;2023-02-23T03:30:25;94439.22;;;6.42;60.00
6528;BME280;64597;42.664;23.256;2023-02-23T03:33:16;94442.91;;;6.34;59.68
6528;BME280;64597;42.664;23.256;2023-02-23T03:36:11;94429.09;;;6.21;60.51
6528;BME280;64597;42.664;23.256;2023-02-23T03:39:20;94441.59;;;6.19;60.71
6528;BME280;64597;42.664;23.256;2023-02-23T03:42:10;94440.06;;;6.05;61.35
6528;BME280;64597;42.664;23.256;2023-02-23T03:44:58;94446.13;;;5.99;61.35
6528;BME280;64597;42.664;23.256;2023-02-23T03:47:44;94448.31;;;6.02;61.44
6528;BME280;64597;42.664;23.256;2023-02-23T03:51:00;94455.31;;;6.08;61.17
6528;BME280;64597;42.664;23.256;2023-02-23T03:53:57;94453.88;;;6.18;60.70
6528;BME280;64597;42.664;23.256;2023-02-23T03:56:47;94462.09;;;6.22;60.57
6528;BME280;64597;42.664;23.256;2023-02-23T03:59:38;94456.91;;;6.15;61.41
6528;BME280;64597;42.664;23.256;2023-02-23T04:02:25;94465.19;;;6.12;61.10
6528;BME280;64597;42.664;23.256;2023-02-23T04:05:15;94461.34;;;6.15;60.81
6528;BME280;64597;42.664;23.256;2023-02-23T04:08:02;94462.19;;;6.09;61.21
6528;BME280;64597;42.664;23.256;2023-02-23T04:10:59;94458.63;;;5.97;61.42
6528;BME280;64597;42.664;23.256;2023-02-23T04:13:47;94447.38;;;5.90;61.48
6528;BME280;64597;42.664;23.256;2023-02-23T04:16:15;94455.41;;;5.95;61.27
6528;BME280;64597;42.664;23.256;2023-02-23T04:18:41;94461.63;;;6.00;61.45
6528;BME280;64597;42.664;23.256;2023-02-23T04:21:06;94456.97;;;6.02;61.41
6528;BME280;64597;42.664;23.256;2023-02-23T04:23:33;94454.97;;;5.98;61.03
6528;BME280;64597;42.664;23.256;2023-02-23T04:25:59;94444.34;;;5.93;61.47
6528;BME280;64597;42.664;23.256;2023-02-23T04:28:27;94449.94;;;6.03;60.97
6528;BME280;64597;42.664;23.256;2023-02-23T04:30:53;94458.78;;;6.02;60.96
6528;BME280;64597;42.664;23.256;2023-02-23T04:33:19;94450.81;;;5.83;61.44
6528;BME280;64597;42.664;23.256;2023-02-23T04:35:46;94455.03;;;5.78;61.86
6528;BME280;64597;42.664;23.256;2023-02-23T04:38:11;94456.03;;;5.77;61.61
6528;BME280;64597;42.664;23.256;2023-02-23T04:40:37;94452.81;;;5.75;62.34
6528;BME280;64597;42.664;23.256;2023-02-23T04:43:02;94453.03;;;5.73;62.15
6528;BME280;64597;42.664;23.256;2023-02-23T04:45:28;94426.38;;;5.52;61.71
6528;BME280;64597;42.664;23.256;2023-02-23T04:47:53;94455.88;;;5.65;62.17
6528;BME280;64597;42.664;23.256;2023-02-23T04:50:19;94456.69;;;5.66;62.58
6528;BME280;64597;42.664;23.256;2023-02-23T04:52:45;94461.13;;;5.65;62.29
6528;BME280;64597;42.664;23.256;2023-02-23T04:55:20;94455.06;;;5.71;63.10
6528;BME280;64597;42.664;23.256;2023-02-23T04:57:46;94453.06;;;5.67;62.36
6528;BME280;64597;42.664;23.256;2023-02-23T05:00:13;94454.28;;;5.64;62.34
6528;BME280;64597;42.664;23.256;2023-02-23T05:02:38;94452.69;;;5.63;63.00
6528;BME280;64597;42.664;23.256;2023-02-23T05:05:04;94456.50;;;5.67;62.86
6528;BME280;64597;42.664;23.256;2023-02-23T05:07:31;94450.44;;;5.73;62.06
6528;BME280;64597;42.664;23.256;2023-02-23T05:09:56;94445.44;;;5.65;62.81
6528;BME280;64597;42.664;23.256;2023-02-23T05:12:21;94456.28;;;5.62;62.69
6528;BME280;64597;42.664;23.256;2023-02-23T05:14:47;94458.75;;;5.57;63.37
6528;BME280;64597;42.664;23.256;2023-02-23T05:17:12;94455.53;;;5.55;63.32
6528;BME280;64597;42.664;23.256;2023-02-23T05:19:38;94457.13;;;5.56;62.99
6528;BME280;64597;42.664;23.256;2023-02-23T05:22:03;94460.75;;;5.55;62.75
6528;BME280;64597;42.664;23.256;2023-02-23T05:24:29;94461.16;;;5.52;63.68
6528;BME280;64597;42.664;23.256;2023-02-23T05:26:54;94461.13;;;5.59;63.04
6528;BME280;64597;42.664;23.256;2023-02-23T05:29:19;94466.75;;;5.62;63.03
6528;BME280;64597;42.664;23.256;2023-02-23T05:31:45;94467.94;;;5.66;62.38
6528;BME280;64597;42.664;23.256;2023-02-23T05:34:13;94472.78;;;5.69;62.34
6528;BME280;64597;42.664;23.256;2023-02-23T05:36:38;94467.53;;;5.69;62.54
6528;BME280;64597;42.664;23.256;2023-02-23T05:39:04;94472.78;;;5.69;62.39
6528;BME280;64597;42.664;23.256;2023-02-23T05:41:30;94484.22;;;5.68;62.52
6528;BME280;64597;42.664;23.256;2023-02-23T05:43:55;94490.66;;;5.72;62.37
6528;BME280;64597;42.664;23.256;2023-02-23T05:46:23;94493.28;;;5.72;62.79
6528;BME280;64597;42.664;23.256;2023-02-23T05:48:50;94486.44;;;5.78;62.22
6528;BME280;64597;42.664;23.256;2023-02-23T05:51:16;94495.09;;;5.72;62.64
6528;BME280;64597;42.664;23.256;2023-02-23T05:53:43;94497.91;;;5.70;62.35
6528;BME280;64597;42.664;23.256;2023-02-23T05:56:12;94505.94;;;5.75;62.22
6528;BME280;64597;42.664;23.256;2023-02-23T05:58:38;94496.47;;;5.88;62.69
6528;BME280;64597;42.664;23.256;2023-02-23T06:01:04;94498.09;;;5.89;62.14
6528;BME280;64597;42.664;23.256;2023-02-23T06:03:29;94503.94;;;5.91;62.18
6528;BME280;64597;42.664;23.256;2023-02-23T06:05:57;94511.78;;;5.91;62.50
6528;BME280;64597;42.664;23.256;2023-02-23T06:08:23;94509.69;;;6.06;62.67
6528;BME280;64597;42.664;23.256;2023-02-23T06:10:50;94507.59;;;6.27;62.98
6528;BME280;64597;42.664;23.256;2023-02-23T06:13:16;94509.69;;;6.50;62.45
6528;BME280;64597;42.664;23.256;2023-02-23T06:15:42;94512.78;;;6.96;60.90
6528;BME280;64597;42.664;23.256;2023-02-23T06:18:07;94510.50;;;7.31;60.19
6528;BME280;64597;42.664;23.256;2023-02-23T06:20:34;94514.41;;;7.65;59.98
6528;BME280;64597;42.664;23.256;2023-02-23T06:22:59;94506.56;;;8.01;58.10
6528;BME280;64597;42.664;23.256;2023-02-23T06:25:25;94511.78;;;8.37;57.54
6528;BME280;64597;42.664;23.256;2023-02-23T06:27:50;94512.28;;;9.86;81.70
6528;BME280;64597;42.664;23.256;2023-02-23T06:30:16;94503.28;;;13.02;77.79
6528;BME280;64597;42.664;23.256;2023-02-23T06:32:42;94501.59;;;14.95;61.13
6528;BME280;64597;42.664;23.256;2023-02-23T06:35:07;94479.72;;;16.39;51.68
6528;BME280;64597;42.664;23.256;2023-02-23T06:37:34;94477.97;;;17.61;45.20
6528;BME280;64597;42.664;23.256;2023-02-23T06:40:00;94489.72;;;18.17;41.11
6528;BME280;64597;42.664;23.256;2023-02-23T06:42:26;94480.44;;;17.13;36.51
6528;BME280;64597;42.664;23.256;2023-02-23T06:44:51;94486.63;;;16.40;37.11
6528;BME280;64597;42.664;23.256;2023-02-23T06:47:17;94497.41;;;15.90;37.01
6528;BME280;64597;42.664;23.256;2023-02-23T06:49:42;94497.94;;;15.66;37.66
6528;BME280;64597;42.664;23.256;2023-02-23T06:52:08;94499.03;;;15.45;37.75
6528;BME280;64597;42.664;23.256;2023-02-23T06:54:34;94493.13;;;15.23;38.85
6528;BME280;64597;42.664;23.256;2023-02-23T06:57:02;94500.03;;;15.24;39.02
6528;BME280;64597;42.664;23.256;2023-02-23T06:59:27;94490.00;;;15.46;38.41
6528;BME280;64597;42.664;23.256;2023-02-23T07:01:52;94484.69;;;15.61;38.25
6528;BME280;64597;42.664;23.256;2023-02-23T07:04:18;94496.38;;;15.76;37.97
6528;BME280;64597;42.664;23.256;2023-02-23T07:06:43;94488.91;;;15.73;37.75
6528;BME280;64597;42.664;23.256;2023-02-23T07:09:09;94483.31;;;15.74;38.00
6528;BME280;64597;42.664;23.256;2023-02-23T07:11:34;94490.78;;;15.82;37.82
6528;BME280;64597;42.664;23.256;2023-02-23T07:14:00;94494.16;;;16.18;36.46
6528;BME280;64597;42.664;23.256;2023-02-23T07:16:27;94486.97;;;16.13;36.62
6528;BME280;64597;42.664;23.256;2023-02-23T07:18:54;94491.75;;;16.21;36.82
6528;BME280;64597;42.664;23.256;2023-02-23T07:21:19;94490.06;;;16.56;36.48
6528;BME280;64597;42.664;23.256;2023-02-23T07:23:45;94490.78;;;16.76;35.74
6528;BME280;64597;42.664;23.256;2023-02-23T07:26:13;94493.81;;;17.03;34.56
6528;BME280;64597;42.664;23.256;2023-02-23T07:28:41;94484.88;;;16.79;35.75
6528;BME280;64597;42.664;23.256;2023-02-23T07:31:07;94485.88;;;16.93;36.01
6528;BME280;64597;42.664;23.256;2023-02-23T07:33:32;94480.47;;;17.08;35.47
6528;BME280;64597;42.664;23.256;2023-02-23T07:35:58;94474.13;;;17.38;34.75
6528;BME280;64597;42.664;23.256;2023-02-23T07:38:23;94479.53;;;17.67;34.45
6528;BME280;64597;42.664;23.256;2023-02-23T07:40:49;94477.75;;;17.86;33.71
6528;BME280;64597;42.664;23.256;2023-02-23T07:43:15;94468.56;;;17.97;33.18
6528;BME280;64597;42.664;23.256;2023-02-23T07:45:40;94471.78;;;18.23;32.69
6528;BME280;64597;42.664;23.256;2023-02-23T07:48:06;94466.16;;;18.24;33.13
6528;BME280;64597;42.664;23.256;2023-02-23T07:50:31;94471.47;;;18.53;33.00
6528;BME280;64597;42.664;23.256;2023-02-23T07:53:00;94468.81;;;18.71;32.12
6528;BME280;64597;42.664;23.256;2023-02-23T07:55:25;94477.69;;;18.90;32.01
6528;BME280;64597;42.664;23.256;2023-02-23T07:57:51;94466.69;;;19.11;31.24
6528;BME280;64597;42.664;23.256;2023-02-23T08:00:17;94466.91;;;19.33;30.77
6528;BME280;64597;42.664;23.256;2023-02-23T08:02:43;94469.06;;;19.31;30.55
6528;BME280;64597;42.664;23.256;2023-02-23T08:05:09;94458.94;;;19.28;30.76
6528;BME280;64597;42.664;23.256;2023-02-23T08:07:35;94470.97;;;19.49;30.74
6528;BME280;64597;42.664;23.256;2023-02-23T08:10:01;94461.03;;;19.68;30.26
6528;BME280;64597;42.664;23.256;2023-02-23T08:12:26;94467.41;;;19.86;30.13
6528;BME280;64597;42.664;23.256;2023-02-23T08:14:52;94456.31;;;19.92;29.70
6528;BME280;64597;42.664;23.256;2023-02-23T08:17:18;94458.75;;;20.07;29.25
6528;BME280;64597;42.664;23.256;2023-02-23T08:19:43;94461.97;;;19.91;29.26
6528;BME280;64597;42.664;23.256;2023-02-23T08:22:09;94465.09;;;20.11;29.54
6528;BME280;64597;42.664;23.256;2023-02-23T08:24:34;94463.56;;;20.37;29.01
6528;BME280;64597;42.664;23.256;2023-02-23T08:27:03;94459.47;;;20.53;28.46
6528;BME280;64597;42.664;23.256;2023-02-23T08:29:29;94460.16;;;20.59;28.21
6528;BME280;64597;42.664;23.256;2023-02-23T08:31:54;94462.38;;;20.71;28.61
6528;BME280;64597;42.664;23.256;2023-02-23T08:34:20;94466.69;;;20.94;28.13
6528;BME280;64597;42.664;23.256;2023-02-23T08:36:47;94457.94;;;21.15;27.71
6528;BME280;64597;42.664;23.256;2023-02-23T08:39:12;94461.78;;;21.23;27.13
6528;BME280;64597;42.664;23.256;2023-02-23T08:41:39;94465.06;;;21.20;27.48
6528;BME280;64597;42.664;23.256;2023-02-23T08:44:05;94460.22;;;21.44;27.44
6528;BME280;64597;42.664;23.256;2023-02-23T08:46:30;94462.19;;;21.52;26.88
6528;BME280;64597;42.664;23.256;2023-02-23T08:48:56;94450.09;;;21.41;26.94
6528;BME280;64597;42.664;23.256;2023-02-23T08:51:22;94453.41;;;21.38;26.71
6528;BME280;64597;42.664;23.256;2023-02-23T08:53:47;94463.94;;;21.57;26.48
6528;BME280;64597;42.664;23.256;2023-02-23T08:56:13;94460.41;;;21.70;26.30
6528;BME280;64597;42.664;23.256;2023-02-23T08:58:40;94456.59;;;21.84;26.27
6528;BME280;64597;42.664;23.256;2023-02-23T09:01:05;94455.09;;;22.00;26.02
6528;BME280;64597;42.664;23.256;2023-02-23T09:03:32;94458.50;;;22.14;25.86
6528;BME280;64597;42.664;23.256;2023-02-23T09:06:12;94451.41;;;22.19;25.41
6528;BME280;64597;42.664;23.256;2023-02-23T09:08:39;94454.22;;;22.44;25.43
6528;BME280;64597;42.664;23.256;2023-02-23T09:11:05;94450.56;;;22.49;25.45
6528;BME280;64597;42.664;23.256;2023-02-23T09:13:31;94419.09;;;22.41;24.97
6528;BME280;64597;42.664;23.256;2023-02-23T09:15:57;94449.56;;;22.58;25.00
6528;BME280;64597;42.664;23.256;2023-02-23T09:18:23;94441.66;;;22.62;25.09
6528;BME280;64597;42.664;23.256;2023-02-23T09:20:52;94445.47;;;22.78;24.39
6528;BME280;64597;42.664;23.256;2023-02-23T09:23:17;94446.78;;;22.50;24.92
6528;BME280;64597;42.664;23.256;2023-02-23T09:25:44;94440.28;;;22.42;24.77
6528;BME280;64597;42.664;23.256;2023-02-23T09:28:12;94454.13;;;22.58;25.19
6528;BME280;64597;42.664;23.256;2023-02-23T09:30:39;94434.88;;;22.34;25.20
6528;BME280;64597;42.664;23.256;2023-02-23T09:33:07;94449.56;;;22.67;24.67
6528;BME280;64597;42.664;23.256;2023-02-23T09:35:33;94454.03;;;22.80;24.68
6528;BME280;64597;42.664;23.256;2023-02-23T09:38:00;94451.41;;;23.06;25.03
6528;BME280;64597;42.664;23.256;2023-02-23T09:40:30;94451.25;;;23.19;24.36
6528;BME280;64597;42.664;23.256;2023-02-23T09:45:38;94453.78;;;23.07;24.00
6528;BME280;64597;42.664;23.256;2023-02-23T09:48:17;94453.13;;;23.19;24.15
6528;BME280;64597;42.664;23.256;2023-02-23T09:50:53;94441.16;;;23.33;24.30
6528;BME280;64597;42.664;23.256;2023-02-23T09:53:33;94450.94;;;23.29;24.40
6528;BME280;64597;42.664;23.256;2023-02-23T09:56:06;94444.28;;;23.27;24.08
6528;BME280;64597;42.664;23.256;2023-02-23T09:58:35;94443.03;;;23.24;24.41
6528;BME280;64597;42.664;23.256;2023-02-23T10:06:44;94436.72;;;23.37;23.80
6528;BME280;64597;42.664;23.256;2023-02-23T10:12:14;94439.41;;;23.46;23.85
6528;BME280;64597;42.664;23.256;2023-02-23T10:23:06;94433.84;;;23.25;24.17
6528;BME280;64597;42.664;23.256;2023-02-23T10:25:37;94424.00;;;22.95;24.37
6528;BME280;64597;42.664;23.256;2023-02-23T10:28:12;94428.78;;;23.15;24.76
6528;BME280;64597;42.664;23.256;2023-02-23T10:30:39;94427.19;;;23.23;24.60
6528;BME280;64597;42.664;23.256;2023-02-23T10:35:36;94417.88;;;23.12;24.30
6528;BME280;64597;42.664;23.256;2023-02-23T10:38:03;94415.16;;;22.94;24.72
6528;BME280;64597;42.664;23.256;2023-02-23T10:40:31;94402.00;;;22.84;24.71
6528;BME280;64597;42.664;23.256;2023-02-23T10:42:59;94387.63;;;22.98;24.86
6528;BME280;64597;42.664;23.256;2023-02-23T10:45:26;94407.22;;;22.98;24.31
6528;BME280;64597;42.664;23.256;2023-02-23T10:47:59;94405.63;;;22.80;24.72
6528;BME280;64597;42.664;23.256;2023-02-23T10:50:27;94394.22;;;22.66;24.87
6528;BME280;64597;42.664;23.256;2023-02-23T10:53:30;94391.69;;;22.61;24.77
6528;BME280;64597;42.664;23.256;2023-02-23T10:56:11;94391.09;;;22.81;24.61
6528;BME280;64597;42.664;23.256;2023-02-23T11:01:06;94381.75;;;23.04;24.73
6528;BME280;64597;42.664;23.256;2023-02-23T11:03:37;94383.19;;;23.10;24.49
6528;BME280;64597;42.664;23.256;2023-02-23T11:06:05;94370.53;;;23.11;24.28
6528;BME280;64597;42.664;23.256;2023-02-23T11:08:33;94372.44;;;23.27;24.36
6528;BME280;64597;42.664;23.256;2023-02-23T11:13:44;94376.25;;;23.26;24.29
6528;BME280;64597;42.664;23.256;2023-02-23T11:16:12;94368.78;;;23.06;24.60
6528;BME280;64597;42.664;23.256;2023-02-23T11:18:41;94360.88;;;22.84;24.08
6528;BME280;64597;42.664;23.256;2023-02-23T11:21:12;94376.84;;;22.72;24.58
6528;BME280;64597;42.664;23.256;2023-02-23T11:23:41;94356.59;;;22.66;24.92
6528;BME280;64597;42.664;23.256;2023-02-23T11:26:36;94359.44;;;22.61;24.88
6528;BME280;64597;42.664;23.256;2023-02-23T11:29:12;94353.94;;;22.27;24.79
6528;BME280;64597;42.664;23.256;2023-02-23T11:31:39;94355.63;;;22.14;25.54
6528;BME280;64597;42.664;23.256;2023-02-23T11:34:28;94352.97;;;22.23;25.21
6528;BME280;64597;42.664;23.256;2023-02-23T11:37:00;94343.16;;;22.09;25.37
6528;BME280;64597;42.664;23.256;2023-02-23T11:39:26;94344.13;;;22.13;25.49
6528;BME280;64597;42.664;23.256;2023-02-23T11:44:49;94347.03;;;22.43;24.95
6528;BME280;64597;42.664;23.256;2023-02-23T11:47:21;94336.56;;;22.33;25.20
6528;BME280;64597;42.664;23.256;2023-02-23T11:49:48;94346.66;;;22.19;24.97
6528;BME280;64597;42.664;23.256;2023-02-23T11:52:17;94339.69;;;21.78;25.53
6528;BME280;64597;42.664;23.256;2023-02-23T11:54:58;94335.06;;;21.70;25.95
6528;BME280;64597;42.664;23.256;2023-02-23T11:57:32;94330.84;;;21.78;25.96
6528;BME280;64597;42.664;23.256;2023-02-23T12:00:03;94332.22;;;21.67;25.86
6528;BME280;64597;42.664;23.256;2023-02-23T12:02:48;94330.31;;;21.67;26.05
6528;BME280;64597;42.664;23.256;2023-02-23T12:05:22;94336.47;;;21.68;25.99
6528;BME280;64597;42.664;23.256;2023-02-23T12:10:43;94298.56;;;21.30;26.05
6528;BME280;64597;42.664;23.256;2023-02-23T12:21:17;94324.28;;;21.09;26.92
6528;BME280;64597;42.664;23.256;2023-02-23T12:23:47;94324.22;;;21.53;46.01
6528;BME280;64597;42.664;23.256;2023-02-23T12:26:20;94321.53;;;22.14;41.40
6528;BME280;64597;42.664;23.256;2023-02-23T12:28:58;94325.13;;;22.58;38.27
6528;BME280;64597;42.664;23.256;2023-02-23T12:31:36;94312.50;;;22.92;35.30
6528;BME280;64597;42.664;23.256;2023-02-23T12:34:40;94300.44;;;23.16;33.55
6528;BME280;64597;42.664;23.256;2023-02-23T12:40:04;94315.13;;;23.52;29.36
6528;BME280;64597;42.664;23.256;2023-02-23T12:45:58;94310.25;;;23.37;29.58
6528;BME280;64597;42.664;23.256;2023-02-23T12:48:33;94311.97;;;23.50;28.85
6528;BME280;64597;42.664;23.256;2023-02-23T12:51:04;94307.03;;;23.61;28.49
6528;BME280;64597;42.664;23.256;2023-02-23T12:53:39;94302.00;;;23.51;25.74
6528;BME280;64597;42.664;23.256;2023-02-23T12:56:28;94302.53;;;22.84;25.06
6528;BME280;64597;42.664;23.256;2023-02-23T13:02:24;94304.00;;;21.47;26.31
6528;BME280;64597;42.664;23.256;2023-02-23T13:21:21;94301.50;;;19.86;28.97
6528;BME280;64597;42.664;23.256;2023-02-23T13:26:34;94293.56;;;19.40;30.54
6528;BME280;64597;42.664;23.256;2023-02-23T13:31:47;94293.22;;;18.96;31.43
6528;BME280;64597;42.664;23.256;2023-02-23T13:34:50;94301.75;;;18.98;31.72
6528;BME280;64597;42.664;23.256;2023-02-23T13:37:21;94298.75;;;18.99;31.40
6528;BME280;64597;42.664;23.256;2023-02-23T13:45:26;94305.13;;;18.52;32.65
6528;BME280;64597;42.664;23.256;2023-02-23T13:51:11;94309.13;;;18.13;33.38
6528;BME280;64597;42.664;23.256;2023-02-23T13:53:52;94309.03;;;18.18;33.04
6528;BME280;64597;42.664;23.256;2023-02-23T13:56:25;94310.16;;;18.35;33.21
6528;BME280;64597;42.664;23.256;2023-02-23T13:59:07;94311.97;;;18.40;32.86
6528;BME280;64597;42.664;23.256;2023-02-23T14:01:44;94305.81;;;18.39;33.10
6528;BME280;64597;42.664;23.256;2023-02-23T14:04:15;94311.72;;;18.36;32.92
6528;BME280;64597;42.664;23.256;2023-02-23T14:07:04;94310.16;;;18.35;32.91
6528;BME280;64597;42.664;23.256;2023-02-23T14:09:46;94310.72;;;18.32;32.81
6528;BME280;64597;42.664;23.256;2023-02-23T14:12:16;94312.38;;;18.28;32.83
6528;BME280;64597;42.664;23.256;2023-02-23T14:14:47;94306.66;;;18.16;32.75
6528;BME280;64597;42.664;23.256;2023-02-23T14:22:15;94314.41;;;17.94;32.88
6528;BME280;64597;42.664;23.256;2023-02-23T14:24:42;94308.63;;;17.87;33.20
6528;BME280;64597;42.664;23.256;2023-02-23T14:27:44;94308.59;;;17.92;33.38
6528;BME280;64597;42.664;23.256;2023-02-23T14:32:44;94308.78;;;17.95;33.14
6528;BME280;64597;42.664;23.256;2023-02-23T14:40:34;94314.84;;;18.01;33.32
6528;BME280;64597;42.664;23.256;2023-02-23T14:46:03;94298.13;;;17.95;33.90
6528;BME280;64597;42.664;23.256;2023-02-23T14:48:33;94293.09;;;17.94;34.10
6528;BME280;64597;42.664;23.256;2023-02-23T14:51:20;94291.44;;;17.98;34.94
6528;BME280;64597;42.664;23.256;2023-02-23T14:53:46;94290.47;;;17.89;35.34
6528;BME280;64597;42.664;23.256;2023-02-23T14:56:22;94277.03;;;17.75;35.43
6528;BME280;64597;42.664;23.256;2023-02-23T14:58:52;94280.97;;;17.59;35.54
6528;BME280;64597;42.664;23.256;2023-02-23T15:01:35;94284.44;;;17.60;36.18
6528;BME280;64597;42.664;23.256;2023-02-23T15:04:09;94282.84;;;17.59;36.01
6528;BME280;64597;42.664;23.256;2023-02-23T15:06:37;94283.53;;;17.41;36.09
6528;BME280;64597;42.664;23.256;2023-02-23T15:09:03;94282.03;;;17.29;35.74
6528;BME280;64597;42.664;23.256;2023-02-23T15:11:29;94300.16;;;17.04;36.64
6528;BME280;64597;42.664;23.256;2023-02-23T15:13:58;94304.91;;;16.78;36.76
6528;BME280;64597;42.664;23.256;2023-02-23T15:16:34;94295.47;;;16.57;37.26
6528;BME280;64597;42.664;23.256;2023-02-23T15:19:02;94300.91;;;16.37;37.61
6528;BME280;64597;42.664;23.256;2023-02-23T15:21:29;94308.91;;;16.32;37.70
6528;BME280;64597;42.664;23.256;2023-02-23T15:24:06;94309.50;;;16.29;37.57
6528;BME280;64597;42.664;23.256;2023-02-23T15:26:38;94313.78;;;16.25;37.72
6528;BME280;64597;42.664;23.256;2023-02-23T15:31:36;94324.47;;;16.15;37.99
6528;BME280;64597;42.664;23.256;2023-02-23T15:34:09;94333.59;;;15.94;38.48
6528;BME280;64597;42.664;23.256;2023-02-23T15:36:35;94333.66;;;15.84;38.48
6528;BME280;64597;42.664;23.256;2023-02-23T15:39:04;94327.88;;;15.61;38.97
6528;BME280;64597;42.664;23.256;2023-02-23T15:41:33;94340.66;;;15.49;38.80
6528;BME280;64597;42.664;23.256;2023-02-23T15:44:21;94343.06;;;15.31;39.56
6528;BME280;64597;42.664;23.256;2023-02-23T15:46:58;94358.22;;;15.15;39.79
6528;BME280;64597;42.664;23.256;2023-02-23T15:49:29;94357.41;;;14.95;40.00
6528;BME280;64597;42.664;23.256;2023-02-23T15:52:08;94357.69;;;14.78;41.01
6528;BME280;64597;42.664;23.256;2023-02-23T15:57:28;94369.09;;;14.63;40.70